sensor_id;sensor_type;location;lat;lon;timestamp;temperature;humidity
68804;SHT31;55787;52.678;13.314;2023-04-03T00:00:04;-0.98;87.07
68804;SHT31;55787;52.678;13.314;2023-04-03T00:02:32;-1.03;86.80
68804;SHT31;55787;52.678;13.314;2023-04-03T00:04:59;-1.08;87.03
68804;SHT31;55787;52.678;13.314;2023-04-03T00:07:26;-1.12;87.08
68804;SHT31;55787;52.678;13.314;2023-04-03T00:09:52;-1.11;86.80
68804;SHT31;55787;52.678;13.314;2023-04-03T00:12:19;-1.16;86.74
68804;SHT31;55787;52.678;13.314;2023-04-03T00:14:45;-1.15;87.36
68804;SHT31;55787;52.678;13.314;2023-04-03T00:17:12;-1.15;88.11
68804;SHT31;55787;52.678;13.314;2023-04-03T00:19:39;-1.16;87.50
68804;SHT31;55787;52.678;13.314;2023-04-03T00:22:05;-1.16;87.91
68804;SHT31;55787;52.678;13.314;2023-04-03T00:24:32;-1.17;87.19
68804;SHT31;55787;52.678;13.314;2023-04-03T00:26:58;-1.19;88.00
68804;SHT31;55787;52.678;13.314;2023-04-03T00:29:25;-1.19;87.93
68804;SHT31;55787;52.678;13.314;2023-04-03T00:31:52;-1.23;87.55
68804;SHT31;55787;52.678;13.314;2023-04-03T00:34:18;-1.26;87.48
68804;SHT31;55787;52.678;13.314;2023-04-03T00:36:46;-1.32;87.88
68804;SHT31;55787;52.678;13.314;2023-04-03T00:39:12;-1.38;87.94
68804;SHT31;55787;52.678;13.314;2023-04-03T00:41:39;-1.43;88.21
68804;SHT31;55787;52.678;13.314;2023-04-03T00:45:22;-1.47;88.28
68804;SHT31;55787;52.678;13.314;2023-04-03T00:47:14;-1.54;88.63
68804;SHT31;55787;52.678;13.314;2023-04-03T00:49:42;-1.57;89.00
68804;SHT31;55787;52.678;13.314;2023-04-03T00:52:12;-1.63;89.08
68804;SHT31;55787;52.678;13.314;2023-04-03T00:54:42;-1.66;88.87
68804;SHT31;55787;52.678;13.314;2023-04-03T00:57:11;-1.68;89.12
68804;SHT31;55787;52.678;13.314;2023-04-03T00:59:41;-1.73;89.08
68804;SHT31;55787;52.678;13.314;2023-04-03T01:02:10;-1.75;89.45
68804;SHT31;55787;52.678;13.314;2023-04-03T01:04:38;-1.77;90.09
68804;SHT31;55787;52.678;13.314;2023-04-03T01:07:10;-1.83;89.98
68804;SHT31;55787;52.678;13.314;2023-04-03T01:09:37;-1.88;89.89
68804;SHT31;55787;52.678;13.314;2023-04-03T01:12:19;-1.91;90.47
68804;SHT31;55787;52.678;13.314;2023-04-03T01:14:49;-1.94;90.48
68804;SHT31;55787;52.678;13.314;2023-04-03T01:17:36;-1.99;90.54
68804;SHT31;55787;52.678;13.314;2023-04-03T01:23:01;-2.14;90.59
68804;SHT31;55787;52.678;13.314;2023-04-03T01:25:33;-2.14;91.24
68804;SHT31;55787;52.678;13.314;2023-04-03T01:28:00;-2.15;91.37
68804;SHT31;55787;52.678;13.314;2023-04-03T01:30:33;-2.16;91.68
68804;SHT31;55787;52.678;13.314;2023-04-03T01:33:01;-2.15;91.83
68804;SHT31;55787;52.678;13.314;2023-04-03T01:35:28;-2.23;91.61
68804;SHT31;55787;52.678;13.314;2023-04-03T01:37:54;-2.23;91.73
68804;SHT31;55787;52.678;13.314;2023-04-03T01:40:21;-2.29;91.67
68804;SHT31;55787;52.678;13.314;2023-04-03T01:42:48;-2.32;91.73
68804;SHT31;55787;52.678;13.314;2023-04-03T01:45:14;-2.39;91.63
68804;SHT31;55787;52.678;13.314;2023-04-03T01:47:41;-2.42;91.64
68804;SHT31;55787;52.678;13.314;2023-04-03T01:50:08;-2.45;91.94
68804;SHT31;55787;52.678;13.314;2023-04-03T01:52:35;-2.45;92.06
68804;SHT31;55787;52.678;13.314;2023-04-03T01:55:02;-2.49;92.04
68804;SHT31;55787;52.678;13.314;2023-04-03T01:57:28;-2.53;92.07
68804;SHT31;55787;52.678;13.314;2023-04-03T01:59:55;-2.57;92.00
68804;SHT31;55787;52.678;13.314;2023-04-03T02:02:21;-2.59;92.34
68804;SHT31;55787;52.678;13.314;2023-04-03T02:04:48;-2.63;92.30
68804;SHT31;55787;52.678;13.314;2023-04-03T02:07:15;-2.69;92.26
68804;SHT31;55787;52.678;13.314;2023-04-03T02:09:41;-2.67;92.69
68804;SHT31;55787;52.678;13.314;2023-04-03T02:12:08;-2.63;92.92
68804;SHT31;55787;52.678;13.314;2023-04-03T02:14:34;-2.57;93.31
68804;SHT31;55787;52.678;13.314;2023-04-03T02:17:02;-2.56;93.02
68804;SHT31;55787;52.678;13.314;2023-04-03T02:19:35;-2.56;93.60
68804;SHT31;55787;52.678;13.314;2023-04-03T02:22:03;-2.59;93.18
68804;SHT31;55787;52.678;13.314;2023-04-03T02:24:32;-2.57;93.08
68804;SHT31;55787;52.678;13.314;2023-04-03T02:26:59;-2.60;93.02
68804;SHT31;55787;52.678;13.314;2023-04-03T02:29:26;-2.62;93.07
68804;SHT31;55787;52.678;13.314;2023-04-03T02:31:52;-2.62;92.92
68804;SHT31;55787;52.678;13.314;2023-04-03T02:34:19;-2.63;92.77
68804;SHT31;55787;52.678;13.314;2023-04-03T02:36:45;-2.60;93.12
68804;SHT31;55787;52.678;13.314;2023-04-03T02:39:12;-2.62;93.20
68804;SHT31;55787;52.678;13.314;2023-04-03T02:41:39;-2.57;93.21
68804;SHT31;55787;52.678;13.314;2023-04-03T02:44:06;-2.53;93.61
68804;SHT31;55787;52.678;13.314;2023-04-03T02:46:33;-2.53;93.41
68804;SHT31;55787;52.678;13.314;2023-04-03T02:49:00;-2.50;93.31
68804;SHT31;55787;52.678;13.314;2023-04-03T02:51:27;-2.48;93.13
68804;SHT31;55787;52.678;13.314;2023-04-03T02:53:53;-2.48;92.97
68804;SHT31;55787;52.678;13.314;2023-04-03T02:56:20;-2.49;93.04
68804;SHT31;55787;52.678;13.314;2023-04-03T02:58:47;-2.49;93.15
68804;SHT31;55787;52.678;13.314;2023-04-03T03:01:14;-2.49;93.28
68804;SHT31;55787;52.678;13.314;2023-04-03T03:03:41;-2.48;93.31
68804;SHT31;55787;52.678;13.314;2023-04-03T03:06:10;-2.46;93.22
68804;SHT31;55787;52.678;13.314;2023-04-03T03:08:37;-2.41;93.18
68804;SHT31;55787;52.678;13.314;2023-04-03T03:11:04;-2.39;93.02
68804;SHT31;55787;52.678;13.314;2023-04-03T03:13:32;-2.36;93.03
68804;SHT31;55787;52.678;13.314;2023-04-03T03:15:59;-2.38;92.88
68804;SHT31;55787;52.678;13.314;2023-04-03T03:18:26;-2.38;92.82
68804;SHT31;55787;52.678;13.314;2023-04-03T03:20:54;-2.39;92.98
68804;SHT31;55787;52.678;13.314;2023-04-03T03:23:22;-2.43;92.89
68804;SHT31;55787;52.678;13.314;2023-04-03T03:26:01;-2.45;92.98
68804;SHT31;55787;52.678;13.314;2023-04-03T03:28:28;-2.46;92.84
68804;SHT31;55787;52.678;13.314;2023-04-03T03:30:56;-2.43;92.77
68804;SHT31;55787;52.678;13.314;2023-04-03T03:33:23;-2.45;92.79
68804;SHT31;55787;52.678;13.314;2023-04-03T03:35:51;-2.48;92.83
68804;SHT31;55787;52.678;13.314;2023-04-03T03:38:18;-2.50;93.06
68804;SHT31;55787;52.678;13.314;2023-04-03T03:40:44;-2.50;92.97
68804;SHT31;55787;52.678;13.314;2023-04-03T03:43:11;-2.54;93.34
68804;SHT31;55787;52.678;13.314;2023-04-03T03:45:38;-2.60;92.95
68804;SHT31;55787;52.678;13.314;2023-04-03T03:48:05;-2.67;93.12
68804;SHT31;55787;52.678;13.314;2023-04-03T03:50:32;-2.64;93.40
68804;SHT31;55787;52.678;13.314;2023-04-03T03:52:58;-2.72;93.37
68804;SHT31;55787;52.678;13.314;2023-04-03T03:55:25;-2.73;93.82
68804;SHT31;55787;52.678;13.314;2023-04-03T03:57:52;-2.72;93.94
68804;SHT31;55787;52.678;13.314;2023-04-03T04:00:19;-2.73;93.67
68804;SHT31;55787;52.678;13.314;2023-04-03T04:02:45;-2.74;93.89
68804;SHT31;55787;52.678;13.314;2023-04-03T04:05:12;-2.76;93.81
68804;SHT31;55787;52.678;13.314;2023-04-03T04:07:40;-2.80;93.92
68804;SHT31;55787;52.678;13.314;2023-04-03T04:10:07;-2.83;93.95
68804;SHT31;55787;52.678;13.314;2023-04-03T04:12:34;-2.88;94.21
68804;SHT31;55787;52.678;13.314;2023-04-03T04:15:02;-2.90;94.30
68804;SHT31;55787;52.678;13.314;2023-04-03T04:17:29;-2.93;94.21
68804;SHT31;55787;52.678;13.314;2023-04-03T04:19:56;-2.90;94.49
68804;SHT31;55787;52.678;13.314;2023-04-03T04:22:22;-2.93;94.67
68804;SHT31;55787;52.678;13.314;2023-04-03T04:24:49;-2.90;94.87
68804;SHT31;55787;52.678;13.314;2023-04-03T04:27:16;-2.91;94.98
68804;SHT31;55787;52.678;13.314;2023-04-03T04:29:43;-2.91;94.87
68804;SHT31;55787;52.678;13.314;2023-04-03T04:32:09;-2.88;95.21
68804;SHT31;55787;52.678;13.314;2023-04-03T04:34:36;-2.83;95.20
68804;SHT31;55787;52.678;13.314;2023-04-03T04:37:03;-2.79;95.14
68804;SHT31;55787;52.678;13.314;2023-04-03T04:39:29;-2.77;95.02
68804;SHT31;55787;52.678;13.314;2023-04-03T04:41:56;-2.80;94.85
68804;SHT31;55787;52.678;13.314;2023-04-03T04:44:23;-2.81;95.05
68804;SHT31;55787;52.678;13.314;2023-04-03T04:46:49;-2.80;95.13
68804;SHT31;55787;52.678;13.314;2023-04-03T04:49:16;-2.84;95.05
68804;SHT31;55787;52.678;13.314;2023-04-03T04:51:42;-2.79;95.61
68804;SHT31;55787;52.678;13.314;2023-04-03T04:54:17;-2.80;95.51
68804;SHT31;55787;52.678;13.314;2023-04-03T04:56:44;-2.80;95.67
68804;SHT31;55787;52.678;13.314;2023-04-03T04:59:11;-2.79;95.37
68804;SHT31;55787;52.678;13.314;2023-04-03T05:01:37;-2.77;95.58
68804;SHT31;55787;52.678;13.314;2023-04-03T05:04:05;-2.72;95.65
68804;SHT31;55787;52.678;13.314;2023-04-03T05:06:31;-2.74;95.37
68804;SHT31;55787;52.678;13.314;2023-04-03T05:08:59;-2.70;95.47
68804;SHT31;55787;52.678;13.314;2023-04-03T05:11:26;-2.69;95.41
68804;SHT31;55787;52.678;13.314;2023-04-03T05:13:53;-2.69;95.33
68804;SHT31;55787;52.678;13.314;2023-04-03T05:16:19;-2.60;95.76
68804;SHT31;55787;52.678;13.314;2023-04-03T05:18:46;-2.53;95.68
68804;SHT31;55787;52.678;13.314;2023-04-03T05:21:13;-2.48;95.37
68804;SHT31;55787;52.678;13.314;2023-04-03T05:23:39;-2.38;95.34
68804;SHT31;55787;52.678;13.314;2023-04-03T05:26:06;-2.31;95.37
68804;SHT31;55787;52.678;13.314;2023-04-03T05:28:33;-2.15;95.28
68804;SHT31;55787;52.678;13.314;2023-04-03T05:31:00;-2.02;94.98
68804;SHT31;55787;52.678;13.314;2023-04-03T05:33:27;-1.90;94.44
68804;SHT31;55787;52.678;13.314;2023-04-03T05:35:54;-1.80;93.86
68804;SHT31;55787;52.678;13.314;2023-04-03T05:38:21;-1.75;93.50
68804;SHT31;55787;52.678;13.314;2023-04-03T05:40:48;-1.71;93.30
68804;SHT31;55787;52.678;13.314;2023-04-03T05:43:14;-1.59;92.89
68804;SHT31;55787;52.678;13.314;2023-04-03T05:45:42;-1.42;92.48
68804;SHT31;55787;52.678;13.314;2023-04-03T05:48:12;-1.30;92.12
68804;SHT31;55787;52.678;13.314;2023-04-03T05:50:39;-1.17;91.93
68804;SHT31;55787;52.678;13.314;2023-04-03T05:53:15;-0.99;90.96
68804;SHT31;55787;52.678;13.314;2023-04-03T05:55:44;-0.82;90.35
68804;SHT31;55787;52.678;13.314;2023-04-03T05:58:10;-0.54;89.76
68804;SHT31;55787;52.678;13.314;2023-04-03T06:00:37;-0.34;89.04
68804;SHT31;55787;52.678;13.314;2023-04-03T06:03:04;-0.21;88.21
68804;SHT31;55787;52.678;13.314;2023-04-03T06:05:32;0.09;87.54
68804;SHT31;55787;52.678;13.314;2023-04-03T06:07:59;1.30;84.47
68804;SHT31;55787;52.678;13.314;2023-04-03T06:10:25;2.88;77.40
68804;SHT31;55787;52.678;13.314;2023-04-03T06:12:52;4.45;70.52
68804;SHT31;55787;52.678;13.314;2023-04-03T06:15:19;5.05;65.76
68804;SHT31;55787;52.678;13.314;2023-04-03T06:17:46;6.04;62.78
68804;SHT31;55787;52.678;13.314;2023-04-03T06:20:13;6.64;60.20
68804;SHT31;55787;52.678;13.314;2023-04-03T06:22:39;7.03;60.34
68804;SHT31;55787;52.678;13.314;2023-04-03T06:25:08;7.50;58.24
68804;SHT31;55787;52.678;13.314;2023-04-03T06:27:36;7.40;57.37
68804;SHT31;55787;52.678;13.314;2023-04-03T06:30:03;7.47;56.45
68804;SHT31;55787;52.678;13.314;2023-04-03T06:32:29;7.57;56.99
68804;SHT31;55787;52.678;13.314;2023-04-03T06:34:56;7.64;56.63
68804;SHT31;55787;52.678;13.314;2023-04-03T06:37:24;8.44;53.11
68804;SHT31;55787;52.678;13.314;2023-04-03T06:39:55;8.40;51.54
68804;SHT31;55787;52.678;13.314;2023-04-03T06:42:22;9.14;50.78
68804;SHT31;55787;52.678;13.314;2023-04-03T06:44:50;8.88;50.39
68804;SHT31;55787;52.678;13.314;2023-04-03T06:47:17;9.72;48.64
68804;SHT31;55787;52.678;13.314;2023-04-03T06:49:44;9.70;47.61
68804;SHT31;55787;52.678;13.314;2023-04-03T06:52:11;10.04;47.22
68804;SHT31;55787;52.678;13.314;2023-04-03T06:54:39;9.98;46.06
68804;SHT31;55787;52.678;13.314;2023-04-03T06:57:06;9.66;47.28
68804;SHT31;55787;52.678;13.314;2023-04-03T06:59:34;8.94;48.21
68804;SHT31;55787;52.678;13.314;2023-04-03T07:02:01;9.31;48.62
68804;SHT31;55787;52.678;13.314;2023-04-03T07:04:28;9.56;46.48
68804;SHT31;55787;52.678;13.314;2023-04-03T07:06:54;10.51;44.32
68804;SHT31;55787;52.678;13.314;2023-04-03T07:09:21;11.17;43.59
68804;SHT31;55787;52.678;13.314;2023-04-03T07:11:48;11.19;43.22
68804;SHT31;55787;52.678;13.314;2023-04-03T07:14:14;11.37;42.85
68804;SHT31;55787;52.678;13.314;2023-04-03T07:16:41;11.30;40.58
68804;SHT31;55787;52.678;13.314;2023-04-03T07:19:08;10.62;42.46
68804;SHT31;55787;52.678;13.314;2023-04-03T07:21:35;10.30;42.29
68804;SHT31;55787;52.678;13.314;2023-04-03T07:24:02;11.09;41.86
68804;SHT31;55787;52.678;13.314;2023-04-03T07:26:28;12.01;40.55
68804;SHT31;55787;52.678;13.314;2023-04-03T07:28:55;12.19;39.70
68804;SHT31;55787;52.678;13.314;2023-04-03T07:31:21;11.67;39.58
68804;SHT31;55787;52.678;13.314;2023-04-03T07:33:49;12.18;38.94
68804;SHT31;55787;52.678;13.314;2023-04-03T07:36:18;12.85;37.01
68804;SHT31;55787;52.678;13.314;2023-04-03T07:38:45;13.18;37.93
68804;SHT31;55787;52.678;13.314;2023-04-03T07:41:14;13.72;36.38
68804;SHT31;55787;52.678;13.314;2023-04-03T07:43:41;11.91;39.52
68804;SHT31;55787;52.678;13.314;2023-04-03T07:46:08;12.11;39.89
68804;SHT31;55787;52.678;13.314;2023-04-03T07:48:35;9.49;44.28
68804;SHT31;55787;52.678;13.314;2023-04-03T07:51:03;8.53;45.38
68804;SHT31;55787;52.678;13.314;2023-04-03T07:53:31;7.53;49.04
68804;SHT31;55787;52.678;13.314;2023-04-03T07:55:58;6.96;50.51
68804;SHT31;55787;52.678;13.314;2023-04-03T07:58:25;6.71;52.13
68804;SHT31;55787;52.678;13.314;2023-04-03T08:00:52;6.00;52.46
68804;SHT31;55787;52.678;13.314;2023-04-03T08:03:19;6.59;52.43
68804;SHT31;55787;52.678;13.314;2023-04-03T08:05:47;6.45;52.11
68804;SHT31;55787;52.678;13.314;2023-04-03T08:08:17;7.78;48.55
68804;SHT31;55787;52.678;13.314;2023-04-03T08:10:51;7.88;47.28
68804;SHT31;55787;52.678;13.314;2023-04-03T08:13:19;7.92;46.26
68804;SHT31;55787;52.678;13.314;2023-04-03T08:15:46;7.79;47.76
68804;SHT31;55787;52.678;13.314;2023-04-03T08:18:14;8.57;46.39
68804;SHT31;55787;52.678;13.314;2023-04-03T08:20:42;8.95;44.80
68804;SHT31;55787;52.678;13.314;2023-04-03T08:23:10;7.81;47.20
68804;SHT31;55787;52.678;13.314;2023-04-03T08:25:38;8.01;47.50
68804;SHT31;55787;52.678;13.314;2023-04-03T08:28:05;7.43;47.59
68804;SHT31;55787;52.678;13.314;2023-04-03T08:30:32;7.28;49.18
68804;SHT31;55787;52.678;13.314;2023-04-03T08:33:01;6.73;49.26
68804;SHT31;55787;52.678;13.314;2023-04-03T08:35:28;6.61;50.88
68804;SHT31;55787;52.678;13.314;2023-04-03T08:37:54;6.28;51.72
68804;SHT31;55787;52.678;13.314;2023-04-03T08:40:21;6.32;51.40
68804;SHT31;55787;52.678;13.314;2023-04-03T08:45:40;6.32;51.66
68804;SHT31;55787;52.678;13.314;2023-04-03T08:48:33;5.89;51.41
68804;SHT31;55787;52.678;13.314;2023-04-03T08:51:05;5.85;53.61
68804;SHT31;55787;52.678;13.314;2023-04-03T08:53:41;5.82;53.35
68804;SHT31;55787;52.678;13.314;2023-04-03T08:56:09;5.69;54.54
68804;SHT31;55787;52.678;13.314;2023-04-03T08:58:49;5.74;54.14
68804;SHT31;55787;52.678;13.314;2023-04-03T09:01:27;5.85;53.48
68804;SHT31;55787;52.678;13.314;2023-04-03T09:03:56;5.97;54.57
68804;SHT31;55787;52.678;13.314;2023-04-03T09:06:27;6.14;53.29
68804;SHT31;55787;52.678;13.314;2023-04-03T09:11:53;6.44;52.29
68804;SHT31;55787;52.678;13.314;2023-04-03T09:17:16;7.92;47.43
68804;SHT31;55787;52.678;13.314;2023-04-03T09:22:41;7.47;47.89
68804;SHT31;55787;52.678;13.314;2023-04-03T09:27:48;7.23;49.25
68804;SHT31;55787;52.678;13.314;2023-04-03T09:30:19;7.23;49.31
68804;SHT31;55787;52.678;13.314;2023-04-03T09:32:47;7.46;46.64
68804;SHT31;55787;52.678;13.314;2023-04-03T09:35:21;7.50;46.19
68804;SHT31;55787;52.678;13.314;2023-04-03T09:40:45;8.07;46.07
68804;SHT31;55787;52.678;13.314;2023-04-03T09:43:25;7.89;44.17
68804;SHT31;55787;52.678;13.314;2023-04-03T09:45:53;7.54;45.68
68804;SHT31;55787;52.678;13.314;2023-04-03T09:48:25;7.34;45.58
68804;SHT31;55787;52.678;13.314;2023-04-03T09:50:59;7.16;46.07
68804;SHT31;55787;52.678;13.314;2023-04-03T09:53:40;7.04;46.89
68804;SHT31;55787;52.678;13.314;2023-04-03T09:56:20;7.19;47.46
68804;SHT31;55787;52.678;13.314;2023-04-03T09:58:50;7.30;46.53
68804;SHT31;55787;52.678;13.314;2023-04-03T10:01:39;7.51;46.80
68804;SHT31;55787;52.678;13.314;2023-04-03T10:06:39;7.96;44.85
68804;SHT31;55787;52.678;13.314;2023-04-03T10:09:28;8.15;43.84
68804;SHT31;55787;52.678;13.314;2023-04-03T10:12:03;8.19;44.76
68804;SHT31;55787;52.678;13.314;2023-04-03T10:15:17;8.12;44.02
68804;SHT31;55787;52.678;13.314;2023-04-03T10:20:18;11.31;35.11
68804;SHT31;55787;52.678;13.314;2023-04-03T10:26:05;11.10;37.01
68804;SHT31;55787;52.678;13.314;2023-04-03T10:33:51;8.71;42.66
68804;SHT31;55787;52.678;13.314;2023-04-03T10:36:35;7.82;44.10
68804;SHT31;55787;52.678;13.314;2023-04-03T10:39:19;9.47;42.55
68804;SHT31;55787;52.678;13.314;2023-04-03T10:57:56;8.77;42.45
68804;SHT31;55787;52.678;13.314;2023-04-03T11:00:33;8.92;43.01
68804;SHT31;55787;52.678;13.314;2023-04-03T11:03:08;9.28;42.53
68804;SHT31;55787;52.678;13.314;2023-04-03T11:05:44;9.04;42.26
68804;SHT31;55787;52.678;13.314;2023-04-03T11:11:25;8.59;42.99
68804;SHT31;55787;52.678;13.314;2023-04-03T11:14:02;8.25;44.78
68804;SHT31;55787;52.678;13.314;2023-04-03T11:16:38;7.91;44.27
68804;SHT31;55787;52.678;13.314;2023-04-03T11:19:21;7.82;44.84
68804;SHT31;55787;52.678;13.314;2023-04-03T11:21:57;7.96;45.41
68804;SHT31;55787;52.678;13.314;2023-04-03T11:24:31;7.71;45.08
68804;SHT31;55787;52.678;13.314;2023-04-03T11:27:00;7.63;44.77
68804;SHT31;55787;52.678;13.314;2023-04-03T11:29:38;7.55;45.86
68804;SHT31;55787;52.678;13.314;2023-04-03T11:32:27;7.54;46.76
68804;SHT31;55787;52.678;13.314;2023-04-03T11:34:57;7.44;45.68
68804;SHT31;55787;52.678;13.314;2023-04-03T11:37:35;7.46;47.81
68804;SHT31;55787;52.678;13.314;2023-04-03T11:40:06;7.37;46.09
68804;SHT31;55787;52.678;13.314;2023-04-03T11:42:46;7.30;47.87
68804;SHT31;55787;52.678;13.314;2023-04-03T11:50:51;7.57;46.98
68804;SHT31;55787;52.678;13.314;2023-04-03T11:53:38;7.13;47.22
68804;SHT31;55787;52.678;13.314;2023-04-03T11:56:35;7.13;47.00
68804;SHT31;55787;52.678;13.314;2023-04-03T12:01:52;6.89;48.25
68804;SHT31;55787;52.678;13.314;2023-04-03T12:04:21;6.91;48.57
68804;SHT31;55787;52.678;13.314;2023-04-03T12:13:00;6.88;49.01
68804;SHT31;55787;52.678;13.314;2023-04-03T12:15:50;7.13;49.89
68804;SHT31;55787;52.678;13.314;2023-04-03T12:18:40;7.24;49.19
68804;SHT31;55787;52.678;13.314;2023-04-03T12:21:10;7.35;48.98
68804;SHT31;55787;52.678;13.314;2023-04-03T12:26:37;7.34;49.17
68804;SHT31;55787;52.678;13.314;2023-04-03T12:48:49;7.68;48.52
68804;SHT31;55787;52.678;13.314;2023-04-03T12:51:33;7.55;46.91
68804;SHT31;55787;52.678;13.314;2023-04-03T12:54:04;7.46;47.31
68804;SHT31;55787;52.678;13.314;2023-04-03T12:56:39;7.37;46.48
68804;SHT31;55787;52.678;13.314;2023-04-03T12:59:32;7.10;47.01
68804;SHT31;55787;52.678;13.314;2023-04-03T13:02:01;7.07;47.85
68804;SHT31;55787;52.678;13.314;2023-04-03T13:04:30;6.97;48.71
68804;SHT31;55787;52.678;13.314;2023-04-03T13:06:58;7.06;48.70
68804;SHT31;55787;52.678;13.314;2023-04-03T13:09:30;6.97;48.39
68804;SHT31;55787;52.678;13.314;2023-04-03T13:12:17;6.83;48.41
68804;SHT31;55787;52.678;13.314;2023-04-03T13:15:13;6.72;50.59
68804;SHT31;55787;52.678;13.314;2023-04-03T13:17:42;6.67;49.58
68804;SHT31;55787;52.678;13.314;2023-04-03T13:20:29;6.64;51.07
68804;SHT31;55787;52.678;13.314;2023-04-03T13:23:10;6.58;50.95
68804;SHT31;55787;52.678;13.314;2023-04-03T13:25:42;6.55;51.13
68804;SHT31;55787;52.678;13.314;2023-04-03T13:28:13;6.24;51.21
68804;SHT31;55787;52.678;13.314;2023-04-03T13:30:55;6.17;52.34
68804;SHT31;55787;52.678;13.314;2023-04-03T13:33:25;6.07;51.99
68804;SHT31;55787;52.678;13.314;2023-04-03T13:36:02;6.06;50.92
68804;SHT31;55787;52.678;13.314;2023-04-03T13:38:30;6.11;51.12
68804;SHT31;55787;52.678;13.314;2023-04-03T13:41:21;6.04;51.70
68804;SHT31;55787;52.678;13.314;2023-04-03T13:43:49;6.10;52.29
68804;SHT31;55787;52.678;13.314;2023-04-03T13:48:51;6.11;51.70
68804;SHT31;55787;52.678;13.314;2023-04-03T13:51:22;6.21;51.85
68804;SHT31;55787;52.678;13.314;2023-04-03T13:53:56;6.16;52.58
68804;SHT31;55787;52.678;13.314;2023-04-03T13:56:38;6.06;52.61
68804;SHT31;55787;52.678;13.314;2023-04-03T14:02:10;5.63;53.63
68804;SHT31;55787;52.678;13.314;2023-04-03T14:07:09;5.69;54.92
68804;SHT31;55787;52.678;13.314;2023-04-03T14:09:36;5.73;56.61
68804;SHT31;55787;52.678;13.314;2023-04-03T14:12:08;5.63;53.94
68804;SHT31;55787;52.678;13.314;2023-04-03T14:14:55;5.80;54.06
68804;SHT31;55787;52.678;13.314;2023-04-03T14:17:25;6.11;54.54
68804;SHT31;55787;52.678;13.314;2023-04-03T14:19:54;6.03;54.20
68804;SHT31;55787;52.678;13.314;2023-04-03T14:22:27;5.97;55.02
68804;SHT31;55787;52.678;13.314;2023-04-03T14:24:55;6.49;54.40
68804;SHT31;55787;52.678;13.314;2023-04-03T14:27:44;7.74;51.68
68804;SHT31;55787;52.678;13.314;2023-04-03T14:30:21;8.16;50.75
68804;SHT31;55787;52.678;13.314;2023-04-03T14:32:49;7.74;49.59
68804;SHT31;55787;52.678;13.314;2023-04-03T14:35:17;7.94;50.74
68804;SHT31;55787;52.678;13.314;2023-04-03T14:37:45;7.58;49.89
68804;SHT31;55787;52.678;13.314;2023-04-03T14:40:15;7.35;50.95
68804;SHT31;55787;52.678;13.314;2023-04-03T14:42:42;6.96;52.05
68804;SHT31;55787;52.678;13.314;2023-04-03T14:45:11;6.69;52.48
68804;SHT31;55787;52.678;13.314;2023-04-03T14:47:54;6.46;53.99
68804;SHT31;55787;52.678;13.314;2023-04-03T14:50:23;6.24;53.77
68804;SHT31;55787;52.678;13.314;2023-04-03T14:52:53;6.02;54.82
68804;SHT31;55787;52.678;13.314;2023-04-03T14:55:22;6.00;55.39
68804;SHT31;55787;52.678;13.314;2023-04-03T14:57:49;5.83;56.55
68804;SHT31;55787;52.678;13.314;2023-04-03T15:00:19;5.77;55.78
68804;SHT31;55787;52.678;13.314;2023-04-03T15:02:46;5.63;55.38
68804;SHT31;55787;52.678;13.314;2023-04-03T15:05:15;5.49;57.37
68804;SHT31;55787;52.678;13.314;2023-04-03T15:07:53;5.49;56.02
68804;SHT31;55787;52.678;13.314;2023-04-03T15:10:29;5.43;57.82
68804;SHT31;55787;52.678;13.314;2023-04-03T15:12:56;5.41;57.44
68804;SHT31;55787;52.678;13.314;2023-04-03T15:15:24;5.36;57.70
68804;SHT31;55787;52.678;13.314;2023-04-03T15:17:54;5.24;58.88
68804;SHT31;55787;52.678;13.314;2023-04-03T15:20:24;5.14;59.45
68804;SHT31;55787;52.678;13.314;2023-04-03T15:22:51;5.08;59.41
68804;SHT31;55787;52.678;13.314;2023-04-03T15:25:18;5.05;60.23
68804;SHT31;55787;52.678;13.314;2023-04-03T15:27:45;5.10;60.17
68804;SHT31;55787;52.678;13.314;2023-04-03T15:30:15;5.11;61.38
68804;SHT31;55787;52.678;13.314;2023-04-03T15:32:42;5.30;61.14
68804;SHT31;55787;52.678;13.314;2023-04-03T15:35:09;5.30;61.01
68804;SHT31;55787;52.678;13.314;2023-04-03T15:37:36;5.41;60.48
68804;SHT31;55787;52.678;13.314;2023-04-03T15:40:04;5.45;60.62
68804;SHT31;55787;52.678;13.314;2023-04-03T15:42:31;5.34;61.67
68804;SHT31;55787;52.678;13.314;2023-04-03T15:44:58;5.34;61.52
68804;SHT31;55787;52.678;13.314;2023-04-03T15:47:25;5.30;61.24
68804;SHT31;55787;52.678;13.314;2023-04-03T15:49:53;5.17;60.23
68804;SHT31;55787;52.678;13.314;2023-04-03T15:52:21;4.93;61.82
68804;SHT31;55787;52.678;13.314;2023-04-03T15:54:48;4.87;62.35
68804;SHT31;55787;52.678;13.314;2023-04-03T15:57:15;5.07;62.27
68804;SHT31;55787;52.678;13.314;2023-04-03T15:59:41;5.36;60.48
68804;SHT31;55787;52.678;13.314;2023-04-03T16:02:10;5.43;59.72
68804;SHT31;55787;52.678;13.314;2023-04-03T16:04:39;5.42;59.79
68804;SHT31;55787;52.678;13.314;2023-04-03T16:07:06;5.38;59.92
68804;SHT31;55787;52.678;13.314;2023-04-03T16:09:33;5.41;59.67
68804;SHT31;55787;52.678;13.314;2023-04-03T16:12:00;5.58;58.69
68804;SHT31;55787;52.678;13.314;2023-04-03T16:14:28;5.46;60.46
68804;SHT31;55787;52.678;13.314;2023-04-03T16:16:57;5.53;60.57
68804;SHT31;55787;52.678;13.314;2023-04-03T16:19:24;5.53;61.02
68804;SHT31;55787;52.678;13.314;2023-04-03T16:21:53;5.35;61.55
68804;SHT31;55787;52.678;13.314;2023-04-03T16:24:20;5.27;61.25
68804;SHT31;55787;52.678;13.314;2023-04-03T16:26:47;5.18;61.93
68804;SHT31;55787;52.678;13.314;2023-04-03T16:29:14;5.01;61.93
68804;SHT31;55787;52.678;13.314;2023-04-03T16:31:40;4.79;62.61
68804;SHT31;55787;52.678;13.314;2023-04-03T16:34:07;4.76;62.70
68804;SHT31;55787;52.678;13.314;2023-04-03T16:36:34;4.67;63.10
68804;SHT31;55787;52.678;13.314;2023-04-03T16:39:01;4.60;63.09
68804;SHT31;55787;52.678;13.314;2023-04-03T16:41:27;4.43;64.01
68804;SHT31;55787;52.678;13.314;2023-04-03T16:43:54;4.46;64.15
68804;SHT31;55787;52.678;13.314;2023-04-03T16:46:21;4.45;64.54
68804;SHT31;55787;52.678;13.314;2023-04-03T16:48:47;4.50;64.75
68804;SHT31;55787;52.678;13.314;2023-04-03T16:51:14;4.50;65.26
68804;SHT31;55787;52.678;13.314;2023-04-03T16:53:40;4.39;65.42
68804;SHT31;55787;52.678;13.314;2023-04-03T16:56:08;4.33;65.78
68804;SHT31;55787;52.678;13.314;2023-04-03T16:58:35;4.46;65.11
68804;SHT31;55787;52.678;13.314;2023-04-03T17:01:18;4.45;65.20
68804;SHT31;55787;52.678;13.314;2023-04-03T17:03:45;4.33;64.89
68804;SHT31;55787;52.678;13.314;2023-04-03T17:06:16;4.22;66.17
68804;SHT31;55787;52.678;13.314;2023-04-03T17:08:45;4.22;65.87
68804;SHT31;55787;52.678;13.314;2023-04-03T17:11:12;4.15;66.50
68804;SHT31;55787;52.678;13.314;2023-04-03T17:13:38;4.11;66.95
68804;SHT31;55787;52.678;13.314;2023-04-03T17:16:08;4.13;67.21
68804;SHT31;55787;52.678;13.314;2023-04-03T17:18:35;4.09;67.19